createdAt,value
2022-07-31T00:01:16.859Z,94.86
2022-07-31T00:03:43.488Z,94.89
2022-07-31T00:06:11.935Z,94.85
2022-07-31T00:08:38.296Z,94.83
2022-07-31T00:11:04.700Z,94.78
2022-07-31T00:13:57.952Z,94.79
2022-07-31T00:16:18.986Z,94.74
2022-07-31T00:18:45.468Z,94.90
2022-07-31T00:21:15.080Z,94.94
2022-07-31T00:23:42.887Z,94.94
2022-07-31T00:26:11.175Z,94.89
2022-07-31T00:28:38.211Z,94.93
2022-07-31T00:31:04.630Z,94.95
2022-07-31T00:33:34.402Z,94.88
2022-07-31T00:36:01.216Z,94.92
2022-07-31T00:38:28.152Z,94.98
2022-07-31T00:40:56.567Z,95.12
2022-07-31T00:43:27.456Z,95.12
2022-07-31T00:45:59.388Z,95.00
2022-07-31T00:48:27.735Z,95.05
2022-07-31T00:50:57.289Z,94.92
2022-07-31T00:53:24.047Z,94.76
2022-07-31T00:55:56.945Z,94.82
2022-07-31T00:58:35.483Z,94.81
2022-07-31T01:01:05.302Z,94.81
2022-07-31T01:03:35.174Z,94.94
2022-07-31T01:06:05.344Z,94.65
2022-07-31T01:08:33.355Z,94.75
2022-07-31T01:11:21.126Z,94.98
2022-07-31T01:13:53.909Z,94.86
2022-07-31T01:16:24.061Z,94.65
2022-07-31T01:18:55.321Z,94.70
2022-07-31T01:22:33.322Z,94.71
2022-07-31T01:25:09.135Z,94.74
2022-07-31T01:27:58.159Z,94.70
2022-07-31T01:31:05.003Z,94.73
2022-07-31T01:33:46.212Z,94.91
2022-07-31T01:36:24.374Z,94.82
2022-07-31T01:38:55.215Z,94.91
2022-07-31T01:41:28.308Z,94.92
2022-07-31T01:43:57.709Z,94.87
2022-07-31T01:46:27.278Z,94.95
2022-07-31T01:48:55.822Z,94.83
2022-07-31T01:51:26.997Z,94.82
2022-07-31T01:53:55.236Z,95.01
2022-07-31T01:56:24.004Z,94.95
2022-07-31T01:58:51.948Z,94.63
2022-07-31T02:01:39.786Z,94.87
2022-07-31T02:04:10.456Z,94.86
2022-07-31T02:06:40.422Z,94.83
2022-07-31T02:09:08.154Z,94.74
2022-07-31T02:11:35.724Z,94.75
2022-07-31T02:14:21.145Z,94.61
2022-07-31T02:16:49.464Z,94.74
2022-07-31T02:19:23.473Z,94.63
2022-07-31T02:21:50.060Z,94.68
2022-07-31T02:24:17.161Z,94.49
2022-07-31T02:26:46.167Z,94.57
2022-07-31T02:29:19.431Z,94.58
2022-07-31T02:32:03.062Z,94.53
2022-07-31T02:34:34.323Z,94.65
2022-07-31T02:37:02.553Z,94.50
2022-07-31T02:39:40.259Z,94.55
2022-07-31T02:42:20.922Z,94.51
2022-07-31T02:44:48.465Z,94.38
2022-07-31T02:47:15.740Z,94.45
2022-07-31T02:49:44.779Z,94.50
2022-07-31T02:52:12.561Z,94.44
2022-07-31T02:54:40.683Z,94.49
2022-07-31T02:57:09.259Z,94.49
2022-07-31T02:59:40.727Z,94.28
2022-07-31T03:02:07.656Z,94.41
2022-07-31T03:04:39.156Z,94.28
2022-07-31T03:07:05.632Z,94.46
2022-07-31T03:09:33.072Z,94.29
2022-07-31T03:12:25.741Z,94.43
2022-07-31T03:14:53.985Z,94.42
2022-07-31T03:17:22.893Z,94.27
2022-07-31T03:20:08.798Z,94.35
2022-07-31T03:22:39.171Z,94.33
2022-07-31T03:25:08.068Z,94.30
2022-07-31T03:27:35.045Z,94.30
2022-07-31T03:30:02.309Z,94.48
2022-07-31T03:32:29.960Z,94.40
2022-07-31T03:34:57.202Z,94.30
2022-07-31T03:37:23.588Z,94.30
2022-07-31T03:39:50.352Z,94.31
2022-07-31T03:42:19.254Z,94.35
2022-07-31T03:44:47.661Z,94.36
2022-07-31T03:47:16.499Z,94.43
2022-07-31T03:49:44.179Z,94.27
2022-07-31T03:52:12.501Z,94.32
2022-07-31T03:54:42.069Z,94.33
2022-07-31T03:57:19.354Z,94.14
2022-07-31T03:59:50.214Z,94.12
2022-07-31T04:02:17.929Z,94.14
2022-07-31T04:04:49.932Z,93.98
2022-07-31T04:07:16.614Z,94.13
2022-07-31T04:09:50.087Z,93.92
2022-07-31T04:12:20.619Z,93.96
2022-07-31T04:14:47.972Z,93.85
2022-07-31T04:17:14.626Z,93.60
2022-07-31T04:19:44.060Z,93.62
2022-07-31T04:22:10.840Z,93.52
2022-07-31T04:24:38.190Z,93.62
2022-07-31T04:27:47.847Z,93.64
2022-07-31T04:30:17.656Z,93.59
2022-07-31T04:32:44.768Z,93.27
2022-07-31T04:35:14.613Z,93.23
2022-07-31T04:37:41.085Z,93.15
2022-07-31T04:40:16.577Z,92.93
2022-07-31T04:42:43.916Z,92.95
2022-07-31T04:45:10.371Z,93.00
2022-07-31T04:47:37.651Z,92.83
2022-07-31T04:50:07.449Z,92.90
2022-07-31T04:52:34.498Z,92.84
2022-07-31T04:55:08.261Z,92.92
2022-07-31T04:57:34.976Z,92.95
2022-07-31T05:00:01.758Z,93.05
2022-07-31T05:02:31.928Z,93.12
2022-07-31T05:04:58.417Z,93.23
2022-07-31T05:07:31.285Z,93.22
2022-07-31T05:10:00.884Z,93.11
2022-07-31T05:12:28.107Z,93.48
2022-07-31T05:14:55.510Z,93.27
2022-07-31T05:17:22.431Z,93.20
2022-07-31T05:20:13.357Z,93.35
2022-07-31T05:22:57.105Z,92.87
2022-07-31T05:25:39.765Z,92.74
2022-07-31T05:28:09.787Z,92.58
2022-07-31T05:30:36.546Z,93.18
2022-07-31T05:33:04.801Z,93.29
2022-07-31T05:35:31.262Z,92.91
2022-07-31T05:37:57.768Z,92.53
2022-07-31T05:40:40.217Z,92.30
2022-07-31T05:43:25.293Z,92.17
2022-07-31T05:46:16.764Z,91.76
2022-07-31T05:48:44.356Z,91.95
2022-07-31T05:51:12.662Z,91.57
2022-07-31T05:53:40.403Z,91.65
2022-07-31T05:56:30.515Z,91.15
2022-07-31T05:58:59.748Z,92.17
2022-07-31T06:01:26.191Z,92.34
2022-07-31T06:03:53.331Z,91.69
2022-07-31T06:06:24.222Z,90.23
2022-07-31T06:08:50.770Z,89.73
2022-07-31T06:11:23.191Z,89.70
2022-07-31T06:13:54.923Z,89.36
2022-07-31T06:16:28.296Z,88.77
2022-07-31T06:18:54.847Z,88.29
2022-07-31T06:23:48.366Z,87.84
2022-07-31T06:26:22.286Z,86.61
2022-07-31T06:28:52.494Z,86.16
2022-07-31T06:31:20.738Z,85.84
2022-07-31T06:33:48.861Z,85.89
2022-07-31T06:36:17.608Z,85.22
2022-07-31T06:38:56.882Z,83.20
2022-07-31T06:41:46.050Z,83.02
2022-07-31T06:44:28.817Z,82.94
2022-07-31T06:47:30.659Z,83.60
2022-07-31T06:50:16.035Z,82.90
2022-07-31T06:52:52.503Z,82.55
2022-07-31T06:55:20.828Z,82.62
2022-07-31T06:57:47.710Z,82.12
2022-07-31T07:00:20.382Z,81.82
2022-07-31T07:02:48.238Z,80.99
2022-07-31T07:05:15.596Z,81.35
2022-07-31T07:07:42.253Z,81.15
2022-07-31T07:10:09.964Z,80.44
2022-07-31T07:13:02.386Z,80.03
2022-07-31T07:15:37.925Z,79.75
2022-07-31T07:18:06.574Z,80.18
2022-07-31T07:20:36.725Z,80.04
2022-07-31T07:23:03.377Z,79.05
2022-07-31T07:25:47.160Z,78.21
2022-07-31T07:28:30.960Z,78.67
2022-07-31T07:31:03.212Z,77.54
2022-07-31T07:33:41.584Z,77.82
2022-07-31T07:36:22.300Z,77.45
2022-07-31T07:38:55.618Z,76.98
2022-07-31T07:41:25.977Z,76.64
2022-07-31T07:43:53.127Z,75.80
2022-07-31T07:46:23.757Z,76.44
2022-07-31T07:48:53.409Z,76.94
2022-07-31T07:51:34.453Z,75.40
2022-07-31T07:54:15.108Z,75.86
2022-07-31T07:57:21.148Z,75.06
2022-07-31T08:00:10.271Z,75.05
2022-07-31T08:03:46.600Z,74.14
2022-07-31T08:05:40.375Z,73.79
2022-07-31T08:08:06.956Z,74.32
2022-07-31T08:10:48.559Z,73.64
2022-07-31T08:13:21.582Z,73.28
2022-07-31T08:15:53.986Z,72.59
2022-07-31T08:18:27.311Z,72.18
2022-07-31T08:20:55.507Z,72.82
2022-07-31T08:23:22.045Z,72.43
2022-07-31T08:25:49.368Z,71.13
2022-07-31T08:28:23.951Z,69.47
2022-07-31T08:30:51.263Z,70.46
2022-07-31T08:33:20.214Z,70.69
2022-07-31T08:35:54.100Z,70.91
2022-07-31T08:38:20.798Z,70.03
2022-07-31T08:41:02.906Z,68.04
2022-07-31T08:44:02.807Z,68.05
2022-07-31T08:46:19.262Z,68.75
2022-07-31T08:48:49.921Z,68.62
2022-07-31T08:51:17.873Z,68.86
2022-07-31T08:54:08.388Z,68.41
2022-07-31T08:56:36.058Z,68.12
2022-07-31T08:59:04.704Z,67.71
2022-07-31T09:01:36.472Z,67.77
2022-07-31T09:04:04.815Z,66.45
2022-07-31T09:06:32.091Z,66.30
2022-07-31T09:08:58.646Z,66.72
2022-07-31T09:11:25.158Z,66.62
2022-07-31T09:14:03.017Z,66.42
2022-07-31T09:16:49.713Z,65.30
2022-07-31T09:19:53.461Z,63.71
2022-07-31T09:22:26.409Z,64.23
2022-07-31T09:24:54.238Z,62.05
2022-07-31T09:27:27.954Z,62.73
2022-07-31T09:29:56.967Z,62.25
2022-07-31T09:32:35.297Z,62.12
2022-07-31T09:35:12.272Z,62.17
2022-07-31T09:37:39.629Z,61.94
2022-07-31T09:40:34.224Z,62.04
2022-07-31T09:43:04.284Z,60.90
2022-07-31T09:45:33.057Z,61.80
2022-07-31T09:48:12.540Z,62.13
2022-07-31T09:50:59.068Z,60.90
2022-07-31T09:53:43.005Z,61.52
2022-07-31T09:56:31.753Z,61.40
2022-07-31T09:58:58.689Z,59.85
2022-07-31T10:01:26.168Z,59.81
2022-07-31T10:03:59.309Z,60.38
2022-07-31T10:06:27.135Z,59.21
2022-07-31T10:08:56.145Z,59.18
2022-07-31T10:11:27.393Z,59.19
2022-07-31T10:14:16.070Z,58.12
2022-07-31T10:16:48.500Z,58.81
2022-07-31T10:19:37.483Z,57.98
2022-07-31T10:22:30.144Z,58.58
2022-07-31T10:25:00.817Z,56.92
2022-07-31T10:27:29.307Z,57.26
2022-07-31T10:30:07.145Z,57.25
2022-07-31T10:32:37.227Z,55.94
2022-07-31T10:35:22.534Z,55.90
2022-07-31T10:38:18.871Z,55.21
2022-07-31T10:41:17.249Z,55.85
2022-07-31T10:43:50.073Z,56.20
2022-07-31T10:46:36.332Z,55.57
2022-07-31T10:49:40.712Z,54.35
2022-07-31T10:52:27.191Z,54.96
2022-07-31T10:55:01.786Z,53.23
2022-07-31T10:57:56.203Z,53.45
2022-07-31T11:00:43.305Z,53.96
2022-07-31T11:03:21.305Z,53.64
2022-07-31T11:06:06.877Z,52.39
2022-07-31T11:08:54.216Z,51.74
2022-07-31T11:11:48.998Z,51.68
2022-07-31T11:14:39.088Z,51.85
2022-07-31T11:18:22.149Z,51.72
2022-07-31T11:20:42.698Z,51.28
2022-07-31T11:23:14.583Z,52.06
2022-07-31T11:25:41.410Z,50.94
2022-07-31T11:28:18.258Z,50.95
2022-07-31T11:30:52.825Z,50.98
2022-07-31T11:33:42.133Z,51.06
2022-07-31T11:36:15.393Z,50.24
2022-07-31T11:38:47.517Z,50.18
2022-07-31T11:41:16.587Z,50.16
2022-07-31T11:43:46.176Z,50.99
2022-07-31T11:46:18.666Z,50.56
2022-07-31T11:48:45.841Z,50.76
2022-07-31T11:51:19.702Z,50.30
2022-07-31T11:53:51.155Z,50.05
2022-07-31T11:56:26.699Z,49.41
2022-07-31T11:58:55.949Z,49.93
2022-07-31T12:01:28.609Z,49.13
2022-07-31T12:03:57.009Z,48.99
2022-07-31T12:06:23.857Z,47.98
2022-07-31T12:08:53.413Z,49.03
2022-07-31T12:11:20.826Z,49.07
2022-07-31T12:13:48.590Z,49.16
2022-07-31T12:16:15.896Z,48.83
2022-07-31T12:18:50.037Z,47.61
2022-07-31T12:21:17.733Z,47.43
2022-07-31T12:23:51.233Z,48.20
2022-07-31T12:26:26.488Z,48.01
2022-07-31T12:29:00.770Z,48.46
2022-07-31T12:31:28.425Z,47.44
2022-07-31T12:33:55.324Z,47.23
2022-07-31T12:36:21.817Z,47.53
2022-07-31T12:38:59.887Z,46.58
2022-07-31T12:41:27.900Z,47.47
2022-07-31T12:43:55.032Z,47.58
2022-07-31T12:46:37.161Z,47.10
2022-07-31T12:49:04.989Z,46.25
2022-07-31T12:51:45.206Z,46.07
2022-07-31T12:54:15.450Z,46.54
2022-07-31T12:56:43.004Z,46.72
2022-07-31T12:59:11.604Z,46.79
2022-07-31T13:01:38.598Z,46.17
2022-07-31T13:04:08.051Z,46.17
2022-07-31T13:06:48.153Z,46.03
2022-07-31T13:09:14.610Z,46.11
2022-07-31T13:11:46.495Z,45.41
2022-07-31T13:14:16.358Z,44.95
2022-07-31T13:16:44.465Z,44.62
2022-07-31T13:19:11.029Z,45.15
2022-07-31T13:21:49.347Z,44.86
2022-07-31T13:24:19.095Z,45.28
2022-07-31T13:26:46.938Z,44.45
2022-07-31T13:29:13.555Z,44.80
2022-07-31T13:31:41.268Z,44.69
2022-07-31T13:34:07.785Z,44.17
2022-07-31T13:36:39.324Z,44.33
2022-07-31T13:39:07.364Z,44.07
2022-07-31T13:41:34.846Z,44.28
2022-07-31T13:44:03.002Z,44.33
2022-07-31T13:46:31.073Z,44.77
2022-07-31T13:48:58.903Z,44.65
2022-07-31T13:51:28.852Z,44.79
2022-07-31T13:53:56.187Z,44.71
2022-07-31T13:56:39.469Z,44.66
2022-07-31T13:59:13.151Z,43.85
2022-07-31T14:02:03.781Z,44.01
2022-07-31T14:04:32.475Z,43.67
2022-07-31T14:07:06.049Z,43.80
2022-07-31T14:09:34.187Z,42.85
2022-07-31T14:12:04.624Z,43.55
2022-07-31T14:14:31.673Z,43.08
2022-07-31T14:16:58.092Z,42.97
2022-07-31T14:19:24.528Z,43.17
2022-07-31T14:21:57.075Z,42.70
2022-07-31T14:24:25.495Z,42.69
2022-07-31T14:26:52.417Z,43.00
2022-07-31T14:29:19.402Z,42.73
2022-07-31T14:31:46.193Z,42.31
2022-07-31T14:34:12.604Z,41.90
2022-07-31T14:36:39.151Z,42.38
2022-07-31T14:39:05.617Z,42.16
2022-07-31T14:41:32.153Z,42.28
2022-07-31T14:43:59.208Z,41.96
2022-07-31T14:46:26.857Z,42.05
2022-07-31T14:48:53.269Z,42.08
2022-07-31T14:51:19.821Z,41.63
2022-07-31T14:53:49.265Z,41.51
2022-07-31T14:56:23.424Z,41.53
2022-07-31T14:59:01.157Z,41.12
2022-07-31T15:01:30.681Z,40.61
2022-07-31T15:03:57.956Z,41.00
2022-07-31T15:06:41.630Z,40.95
2022-07-31T15:09:12.757Z,40.02
2022-07-31T15:11:59.365Z,39.71
2022-07-31T15:14:29.521Z,39.57
2022-07-31T15:16:56.665Z,39.19
2022-07-31T15:19:23.241Z,39.67
2022-07-31T15:22:10.990Z,39.67
2022-07-31T15:24:38.514Z,39.46
2022-07-31T15:27:08.047Z,39.38
2022-07-31T15:30:05.159Z,38.79
2022-07-31T15:32:22.189Z,38.62
2022-07-31T15:34:48.539Z,38.90
2022-07-31T15:37:19.891Z,38.73
2022-07-31T15:40:01.594Z,38.19
2022-07-31T15:42:31.602Z,38.08
2022-07-31T15:44:58.101Z,38.41
2022-07-31T15:47:24.707Z,38.51
2022-07-31T15:49:51.232Z,38.65
2022-07-31T15:52:19.407Z,38.32
2022-07-31T15:54:46.623Z,38.37
2022-07-31T15:57:13.307Z,37.92
2022-07-31T15:59:39.696Z,38.28
2022-07-31T16:02:06.311Z,38.34
2022-07-31T16:04:34.131Z,38.54
2022-07-31T16:08:29.178Z,38.55
2022-07-31T16:10:02.682Z,38.23
2022-07-31T16:12:34.619Z,38.13
2022-07-31T16:15:01.841Z,38.29
2022-07-31T16:17:37.184Z,38.04
2022-07-31T16:20:12.415Z,38.21
2022-07-31T16:22:40.606Z,38.21
2022-07-31T16:25:09.400Z,37.89
2022-07-31T16:27:38.496Z,38.03
2022-07-31T16:30:06.815Z,38.12
2022-07-31T16:32:33.519Z,37.91
2022-07-31T16:35:01.526Z,38.16
2022-07-31T16:37:50.361Z,38.19
2022-07-31T16:40:29.808Z,38.06
2022-07-31T16:43:00.971Z,38.03
2022-07-31T16:45:29.386Z,38.01
2022-07-31T16:47:56.558Z,38.00
2022-07-31T16:50:23.396Z,38.11
2022-07-31T16:52:54.175Z,37.94
2022-07-31T16:55:51.784Z,37.90
2022-07-31T16:58:10.892Z,37.52
2022-07-31T17:00:38.916Z,37.82
2022-07-31T17:03:05.825Z,37.80
2022-07-31T17:05:32.306Z,37.77
2022-07-31T17:07:58.921Z,37.83
2022-07-31T17:10:27.008Z,38.07
2022-07-31T17:12:54.007Z,37.61
2022-07-31T17:15:20.802Z,37.72
2022-07-31T17:17:47.541Z,37.75
2022-07-31T17:20:14.951Z,38.07
2022-07-31T17:22:41.792Z,37.89
2022-07-31T17:25:10.827Z,38.16
2022-07-31T17:27:40.004Z,37.88
2022-07-31T17:30:09.355Z,38.85
2022-07-31T17:32:38.883Z,38.51
2022-07-31T17:35:06.343Z,38.11
2022-07-31T17:37:32.740Z,38.30
2022-07-31T17:39:59.222Z,38.34
2022-07-31T17:42:27.957Z,38.42
2022-07-31T17:44:55.906Z,38.50
2022-07-31T17:47:25.295Z,38.51
2022-07-31T17:49:52.935Z,38.74
2022-07-31T17:52:20.374Z,38.41
2022-07-31T17:54:48.158Z,38.72
2022-07-31T17:57:14.854Z,38.74
2022-07-31T17:59:42.139Z,38.78
2022-07-31T18:02:09.528Z,38.70
2022-07-31T18:04:37.183Z,38.57
2022-07-31T18:07:05.834Z,38.50
2022-07-31T18:09:33.502Z,38.60
2022-07-31T18:12:01.231Z,38.68
2022-07-31T18:14:29.138Z,38.97
2022-07-31T18:16:55.610Z,39.32
2022-07-31T18:19:22.515Z,39.59
2022-07-31T18:21:50.601Z,39.74
2022-07-31T18:24:17.456Z,39.86
2022-07-31T18:26:43.981Z,40.19
2022-07-31T18:29:10.405Z,40.40
2022-07-31T18:31:37.465Z,40.52
2022-07-31T18:34:06.297Z,40.81
2022-07-31T18:36:33.857Z,40.87
2022-07-31T18:39:00.852Z,41.00
2022-07-31T18:41:27.380Z,41.23
2022-07-31T18:43:54.453Z,41.55
2022-07-31T18:46:23.003Z,41.62
2022-07-31T18:48:55.036Z,41.57
2022-07-31T18:51:23.917Z,41.95
2022-07-31T18:53:51.252Z,41.93
2022-07-31T18:56:17.850Z,42.20
2022-07-31T18:58:44.380Z,42.39
2022-07-31T19:01:11.280Z,42.61
2022-07-31T19:03:37.877Z,42.86
2022-07-31T19:06:05.577Z,42.98
2022-07-31T19:08:35.095Z,43.08
2022-07-31T19:11:02.587Z,43.24
2022-07-31T19:13:29.287Z,43.50
2022-07-31T19:15:56.200Z,43.76
2022-07-31T19:18:28.094Z,43.87
2022-07-31T19:21:19.123Z,44.16
2022-07-31T19:23:43.582Z,44.19
2022-07-31T19:26:11.273Z,44.17
2022-07-31T19:28:39.079Z,44.50
2022-07-31T19:31:06.564Z,44.81
2022-07-31T19:33:34.333Z,44.85
2022-07-31T19:36:03.232Z,44.79
2022-07-31T19:38:31.862Z,45.21
2022-07-31T19:40:59.061Z,45.32
2022-07-31T19:43:25.594Z,45.31
2022-07-31T19:45:58.777Z,45.52
2022-07-31T19:48:40.237Z,45.72
2022-07-31T19:51:06.862Z,45.69
2022-07-31T19:53:35.672Z,45.93
2022-07-31T19:56:04.874Z,45.89
2022-07-31T19:58:34.008Z,46.09
2022-07-31T20:01:00.951Z,46.26
2022-07-31T20:03:27.431Z,46.34
2022-07-31T20:05:55.842Z,46.44
2022-07-31T20:08:23.181Z,46.42
2022-07-31T20:10:50.037Z,46.51
2022-07-31T20:13:18.940Z,46.60
2022-07-31T20:15:52.442Z,46.82
2022-07-31T20:18:27.250Z,46.92
2022-07-31T20:21:06.393Z,47.11
2022-07-31T20:23:36.096Z,47.28
2022-07-31T20:26:08.527Z,47.54
2022-07-31T20:28:36.129Z,47.53
2022-07-31T20:31:02.856Z,47.85
2022-07-31T20:33:30.545Z,47.86
2022-07-31T20:35:58.379Z,48.01
2022-07-31T20:38:25.228Z,48.32
2022-07-31T20:40:55.461Z,48.37
2022-07-31T20:43:23.872Z,48.50
2022-07-31T20:45:50.916Z,48.47
2022-07-31T20:48:17.952Z,48.58
2022-07-31T20:50:48.028Z,48.74
2022-07-31T20:53:16.235Z,49.03
2022-07-31T20:55:48.498Z,48.96
2022-07-31T20:58:15.941Z,49.23
2022-07-31T21:00:43.172Z,49.30
2022-07-31T21:03:10.205Z,49.37
2022-07-31T21:05:38.677Z,49.49
2022-07-31T21:08:05.213Z,49.68
2022-07-31T21:10:34.353Z,49.92
2022-07-31T21:13:01.107Z,50.10
2022-07-31T21:15:44.095Z,50.10
2022-07-31T21:18:16.303Z,50.50
2022-07-31T21:20:52.177Z,50.36
2022-07-31T21:23:24.988Z,50.67
2022-07-31T21:25:53.759Z,50.85
2022-07-31T21:28:21.932Z,50.92
2022-07-31T21:30:49.529Z,51.05
2022-07-31T21:33:17.336Z,51.11
2022-07-31T21:35:44.401Z,51.17
2022-07-31T21:38:11.900Z,51.38
2022-07-31T21:40:39.689Z,51.41
2022-07-31T21:43:06.629Z,51.49
2022-07-31T21:45:43.413Z,51.63
2022-07-31T21:48:18.733Z,52.26
2022-07-31T21:50:45.741Z,52.32
2022-07-31T21:53:13.342Z,52.30
2022-07-31T21:55:40.623Z,52.38
2022-07-31T21:58:08.328Z,52.14
2022-07-31T22:00:35.397Z,52.08
2022-07-31T22:03:02.987Z,52.37
2022-07-31T22:05:51.379Z,52.38
2022-07-31T22:08:18.306Z,52.40
2022-07-31T22:10:45.240Z,52.47
2022-07-31T22:13:12.388Z,52.77
2022-07-31T22:15:58.228Z,52.93
2022-07-31T22:18:31.510Z,53.18
2022-07-31T22:20:59.466Z,53.35
2022-07-31T22:23:26.892Z,53.76
2022-07-31T22:25:53.866Z,53.76
2022-07-31T22:28:21.993Z,53.86
2022-07-31T22:30:48.969Z,54.04
2022-07-31T22:33:15.532Z,54.14
2022-07-31T22:35:43.327Z,54.13
2022-07-31T22:38:12.637Z,54.38
2022-07-31T22:40:39.767Z,54.51
2022-07-31T22:44:10.795Z,54.50
2022-07-31T22:45:59.112Z,54.74
2022-07-31T22:48:27.208Z,54.65
2022-07-31T22:50:54.823Z,54.92
2022-07-31T22:53:21.299Z,54.96
2022-07-31T22:55:47.807Z,54.96
2022-07-31T22:58:14.579Z,55.01
2022-07-31T23:00:41.875Z,55.10
2022-07-31T23:03:11.502Z,55.31
2022-07-31T23:06:02.872Z,55.47
2022-07-31T23:08:24.199Z,55.65
2022-07-31T23:10:51.030Z,55.89
2022-07-31T23:13:17.435Z,56.02
2022-07-31T23:15:44.206Z,56.28
2022-07-31T23:18:11.249Z,56.37
2022-07-31T23:20:38.794Z,56.71
2022-07-31T23:23:05.439Z,56.79
2022-07-31T23:25:32.827Z,56.93
2022-07-31T23:27:59.207Z,57.07
2022-07-31T23:30:26.995Z,57.24
2022-07-31T23:32:54.845Z,57.21
2022-07-31T23:35:21.607Z,57.55
2022-07-31T23:37:49.245Z,57.59
2022-07-31T23:40:15.804Z,57.60
2022-07-31T23:42:45.707Z,57.78
2022-07-31T23:45:15.330Z,57.97
2022-07-31T23:47:46.215Z,57.95
2022-07-31T23:50:14.701Z,58.22
2022-07-31T23:52:44.774Z,58.35
2022-07-31T23:55:11.674Z,58.50
2022-07-31T23:57:40.248Z,58.60
